Time;durP1;ratioP1;P1;durP2;ratioP2;P2;SDS_P1;SDS_P2;PMS_P1;PMS_P2;Temp;Humidity;BMP_temperature;BMP_pressure;BME280_temperature;BME280_humidity;BME280_pressure;Samples;Min_cycle;Max_cycle;Signal;HPM_P1;HPM_P2
2021/06/21 00:00:04;;;;;;;9.18;6.28;;;;;;;;;;2057825;28;20608;-64
2021/06/21 00:01:11;;;;;;;7.03;6.07;;;;;;;;;;2057381;28;20170;-63
2021/06/21 00:02:11;;;;;;;4.80;4.35;;;;;;;;;;2057408;28;20186;-60
2021/06/21 00:03:11;;;;;;;10.32;7.00;;;;;;;;;;2056674;28;20266;-59
2021/06/21 00:04:12;;;;;;;7.57;6.10;;;;;;;;;;2052741;28;20167;-62
2021/06/21 00:05:13;;;;;;;8.30;6.65;;;;;;;;;;2044968;29;20211;-62
2021/06/21 00:06:14;;;;;;;8.85;5.82;;;;;;;;;;2044178;28;20683;-63
2021/06/21 00:07:14;;;;;;;9.20;6.95;;;;;;;;;;2056377;28;20174;-60
2021/06/21 00:08:15;;;;;;;10.52;6.70;;;;;;;;;;2055728;28;20752;-61
2021/06/21 00:09:15;;;;;;;10.63;5.82;;;;;;;;;;2053471;28;20268;-62
2021/06/21 00:10:16;;;;;;;9.90;6.65;;;;;;;;;;2056707;28;20582;-62
2021/06/21 00:11:16;;;;;;;7.72;5.70;;;;;;;;;;2056507;28;20214;-63
2021/06/21 00:12:17;;;;;;;8.30;5.93;;;;;;;;;;2055751;28;20181;-63
2021/06/21 00:13:17;;;;;;;6.55;5.40;;;;;;;;;;2056136;28;20795;-63
2021/06/21 00:14:17;;;;;;;6.68;5.82;;;;;;;;;;2056768;28;20623;-60
2021/06/21 00:15:19;;;;;;;7.35;5.55;;;;;;;;;;2056944;28;20689;-62
2021/06/21 00:16:19;;;;;;;9.20;7.30;;;;;;;;;;2056904;28;20214;-61
2021/06/21 00:17:19;;;;;;;6.95;6.32;;;;;;;;;;2056228;28;20265;-62
2021/06/21 00:18:20;;;;;;;8.45;6.78;;;;;;;;;;2056509;28;20183;-63
2021/06/21 00:19:20;;;;;;;10.18;7.15;;;;;;;;;;2057070;28;20175;-64
2021/06/21 00:20:21;;;;;;;7.63;6.15;;;;;;;;;;2057073;28;20189;-61
2021/06/21 00:21:21;;;;;;;7.05;5.97;;;;;;;;;;2055867;28;20193;-62
2021/06/21 00:22:21;;;;;;;6.40;5.85;;;;;;;;;;2056401;28;20166;-60
2021/06/21 00:23:22;;;;;;;10.00;6.70;;;;;;;;;;2056933;28;20543;-58
2021/06/21 00:24:22;;;;;;;8.45;5.90;;;;;;;;;;2055583;28;20523;-60
2021/06/21 00:25:23;;;;;;;7.28;6.07;;;;;;;;;;2057032;28;20186;-61
2021/06/21 00:26:23;;;;;;;8.27;6.15;;;;;;;;;;2055323;28;20214;-62
2021/06/21 00:27:25;;;;;;;8.77;6.22;;;;;;;;;;2056987;28;20639;-61
2021/06/21 00:28:25;;;;;;;9.75;6.10;;;;;;;;;;2056457;28;20179;-63
2021/06/21 00:29:25;;;;;;;9.07;6.10;;;;;;;;;;2057331;28;20257;-60
2021/06/21 00:30:26;;;;;;;6.25;5.65;;;;;;;;;;2056372;28;20268;-62
2021/06/21 00:31:26;;;;;;;6.90;6.10;;;;;;;;;;2047676;29;20183;-61
2021/06/21 00:32:26;;;;;;;6.47;5.75;;;;;;;;;;2056889;28;20209;-63
2021/06/21 00:33:26;;;;;;;7.50;5.82;;;;;;;;;;2056011;28;20163;-62
2021/06/21 00:34:27;;;;;;;5.88;5.35;;;;;;;;;;2057259;28;20225;-61
2021/06/21 00:35:27;;;;;;;8.75;6.55;;;;;;;;;;2056684;28;20627;-63
2021/06/21 00:36:27;;;;;;;9.05;5.88;;;;;;;;;;2056775;28;20189;-60
2021/06/21 00:37:28;;;;;;;10.75;5.90;;;;;;;;;;2056142;28;20718;-63
2021/06/21 00:38:28;;;;;;;8.13;5.40;;;;;;;;;;2055920;28;20174;-61
2021/06/21 00:39:28;;;;;;;6.93;4.32;;;;;;;;;;2057017;28;20207;-62
2021/06/21 00:40:28;;;;;;;8.02;5.35;;;;;;;;;;2056393;28;20209;-61
2021/06/21 00:41:29;;;;;;;7.63;5.15;;;;;;;;;;2055074;28;20189;-62
2021/06/21 00:42:29;;;;;;;5.90;5.38;;;;;;;;;;2048066;28;20187;-61
2021/06/21 00:43:29;;;;;;;7.63;5.68;;;;;;;;;;2042839;28;20176;-61
2021/06/21 00:44:30;;;;;;;9.82;5.40;;;;;;;;;;2055129;28;20658;-63
2021/06/21 00:45:30;;;;;;;8.02;4.72;;;;;;;;;;2056918;28;20166;-61
2021/06/21 00:46:30;;;;;;;7.75;5.50;;;;;;;;;;2056142;28;20170;-63
2021/06/21 00:47:31;;;;;;;8.77;5.45;;;;;;;;;;2057449;28;20654;-63
2021/06/21 00:48:31;;;;;;;8.32;5.30;;;;;;;;;;2056377;28;20630;-61
2021/06/21 00:49:31;;;;;;;5.53;5.03;;;;;;;;;;2057411;28;20177;-61
2021/06/21 00:50:31;;;;;;;8.75;5.38;;;;;;;;;;2053542;28;20171;-62
2021/06/21 00:51:32;;;;;;;5.68;4.50;;;;;;;;;;2054124;28;20486;-60
2021/06/21 00:52:32;;;;;;;6.07;4.95;;;;;;;;;;2053384;28;20304;-57
2021/06/21 00:53:33;;;;;;;8.73;5.80;;;;;;;;;;2056562;28;20589;-61
2021/06/21 00:54:33;;;;;;;6.93;5.30;;;;;;;;;;2052816;28;20564;-62
2021/06/21 00:55:34;;;;;;;4.72;4.32;;;;;;;;;;2055363;28;20645;-62
2021/06/21 00:56:34;;;;;;;8.02;4.75;;;;;;;;;;2052747;28;20206;-58
2021/06/21 00:57:35;;;;;;;4.90;4.45;;;;;;;;;;2055873;28;20174;-63
2021/06/21 00:58:35;;;;;;;9.07;5.03;;;;;;;;;;2056455;28;20193;-63
2021/06/21 00:59:36;;;;;;;5.25;4.30;;;;;;;;;;2057104;28;20175;-63
2021/06/21 01:00:36;;;;;;;6.57;4.82;;;;;;;;;;2056028;28;20174;-62
2021/06/21 01:01:36;;;;;;;7.82;5.07;;;;;;;;;;2055502;28;20179;-62
2021/06/21 01:02:37;;;;;;;5.72;5.20;;;;;;;;;;2050974;28;20179;-63
2021/06/21 01:03:37;;;;;;;6.45;4.57;;;;;;;;;;2056460;28;20668;-63
2021/06/21 01:04:37;;;;;;;7.80;4.60;;;;;;;;;;2050450;28;20167;-61
2021/06/21 01:05:39;;;;;;;5.57;4.97;;;;;;;;;;2056215;28;20635;-62
2021/06/21 01:06:39;;;;;;;5.80;5.10;;;;;;;;;;2051437;28;20185;-63
2021/06/21 01:07:40;;;;;;;6.15;4.60;;;;;;;;;;2052883;28;20183;-58
2021/06/21 01:08:40;;;;;;;8.18;5.10;;;;;;;;;;2055646;28;20284;-61
2021/06/21 01:09:41;;;;;;;4.97;4.38;;;;;;;;;;2056472;28;20182;-62
2021/06/21 01:10:43;;;;;;;5.63;5.13;;;;;;;;;;2056793;28;20201;-62
2021/06/21 01:11:57;;;;;;;7.68;5.03;;;;;;;;;;2055776;28;20236;-63
2021/06/21 01:13:16;;;;;;;5.72;4.80;;;;;;;;;;2051168;28;20270;-63
2021/06/21 01:14:35;;;;;;;5.53;4.75;;;;;;;;;;2055071;28;20221;-61
2021/06/21 01:15:39;;;;;;;8.60;4.63;;;;;;;;;;2056142;28;21128;-60
2021/06/21 01:16:42;;;;;;;8.88;4.80;;;;;;;;;;2056655;28;20179;-63
2021/06/21 01:17:42;;;;;;;5.53;4.93;;;;;;;;;;2055629;28;20610;-63
2021/06/21 01:18:48;;;;;;;7.00;4.97;;;;;;;;;;2056033;28;20189;-62
2021/06/21 01:19:51;;;;;;;6.65;5.47;;;;;;;;;;2052770;28;20182;-64
2021/06/21 01:21:09;;;;;;;7.30;4.75;;;;;;;;;;2057369;28;20658;-64
2021/06/21 01:22:28;;;;;;;6.65;4.80;;;;;;;;;;2053124;28;20232;-61
2021/06/21 01:23:42;;;;;;;5.05;4.50;;;;;;;;;;2055400;28;20182;-57
2021/06/21 01:25:06;;;;;;;8.25;4.38;;;;;;;;;;2059244;28;20189;-60
2021/06/21 01:26:06;;;;;;;5.70;4.15;;;;;;;;;;2054979;28;20202;-59
2021/06/21 01:27:24;;;;;;;6.38;3.90;;;;;;;;;;2059621;28;20197;-60
2021/06/21 01:28:40;;;;;;;6.43;4.45;;;;;;;;;;2057028;28;20748;-57
2021/06/21 01:29:49;;;;;;;5.63;4.70;;;;;;;;;;2054616;28;20265;-60
2021/06/21 01:30:52;;;;;;;6.53;4.47;;;;;;;;;;2049670;28;20229;-58
2021/06/21 01:32:15;;;;;;;6.60;4.55;;;;;;;;;;2051241;28;20588;-59
2021/06/21 01:33:15;;;;;;;4.65;4.35;;;;;;;;;;2056060;28;20183;-60
2021/06/21 01:34:17;;;;;;;5.00;4.50;;;;;;;;;;2055057;28;20221;-61
2021/06/21 01:35:20;;;;;;;7.22;4.90;;;;;;;;;;2052770;28;20178;-63
2021/06/21 01:36:22;;;;;;;7.32;4.22;;;;;;;;;;2056115;28;20194;-60
2021/06/21 01:37:23;;;;;;;4.85;4.43;;;;;;;;;;2056121;28;20167;-62
2021/06/21 01:38:25;;;;;;;4.43;4.05;;;;;;;;;;2056202;28;20171;-62
2021/06/21 01:39:26;;;;;;;5.70;4.50;;;;;;;;;;2053140;28;20671;-63
2021/06/21 01:40:31;;;;;;;6.80;5.43;;;;;;;;;;2054156;28;20166;-60
2021/06/21 01:41:35;;;;;;;6.50;5.32;;;;;;;;;;2051141;28;20644;-61
2021/06/21 01:42:37;;;;;;;5.20;4.70;;;;;;;;;;2055283;28;20166;-59
2021/06/21 01:43:41;;;;;;;4.45;4.03;;;;;;;;;;2055875;28;20753;-63
2021/06/21 01:44:43;;;;;;;6.93;4.50;;;;;;;;;;2055620;28;20181;-60
2021/06/21 01:45:43;;;;;;;4.13;3.72;;;;;;;;;;2049953;28;20200;-64
2021/06/21 01:46:45;;;;;;;5.75;4.10;;;;;;;;;;2055660;28;20184;-62
2021/06/21 01:47:47;;;;;;;4.55;4.03;;;;;;;;;;2048682;28;20269;-64
2021/06/21 01:48:57;;;;;;;4.05;3.67;;;;;;;;;;2055707;28;20205;-58
2021/06/21 01:49:58;;;;;;;5.05;4.00;;;;;;;;;;2056072;28;20178;-61
2021/06/21 01:50:59;;;;;;;5.57;4.82;;;;;;;;;;2055689;28;20174;-59
2021/06/21 01:52:01;;;;;;;4.20;3.90;;;;;;;;;;2056190;28;20639;-61
2021/06/21 01:53:05;;;;;;;6.57;4.22;;;;;;;;;;2055606;28;20197;-60
2021/06/21 01:54:06;;;;;;;5.00;4.43;;;;;;;;;;2056423;28;20174;-59
2021/06/21 01:55:08;;;;;;;4.63;4.25;;;;;;;;;;2056139;28;20166;-60
2021/06/21 01:56:14;;;;;;;4.72;4.38;;;;;;;;;;2056139;28;20245;-57
2021/06/21 01:57:18;;;;;;;6.10;3.58;;;;;;;;;;2055200;28;20208;-63
2021/06/21 01:58:20;;;;;;;4.25;3.85;;;;;;;;;;2057030;28;20185;-61
2021/06/21 01:59:23;;;;;;;4.57;4.10;;;;;;;;;;2055918;28;20277;-63
2021/06/21 02:00:24;;;;;;;4.78;4.20;;;;;;;;;;2056318;28;20245;-58
2021/06/21 02:01:24;;;;;;;4.50;4.07;;;;;;;;;;2053316;28;20177;-63
2021/06/21 02:02:25;;;;;;;5.75;4.40;;;;;;;;;;2055662;28;20190;-64
2021/06/21 02:03:26;;;;;;;4.97;4.22;;;;;;;;;;2054156;28;20170;-62
2021/06/21 02:04:28;;;;;;;8.15;4.50;;;;;;;;;;2055187;28;20175;-61
2021/06/21 02:05:30;;;;;;;6.43;4.57;;;;;;;;;;2055383;28;20197;-62
2021/06/21 02:06:32;;;;;;;4.50;4.00;;;;;;;;;;2055517;28;20182;-64
2021/06/21 02:07:32;;;;;;;5.68;4.90;;;;;;;;;;2053790;28;20165;-62
2021/06/21 02:08:34;;;;;;;4.53;4.20;;;;;;;;;;2052132;28;20175;-63
2021/06/21 02:09:35;;;;;;;4.88;4.40;;;;;;;;;;2055165;28;20174;-62
2021/06/21 02:10:35;;;;;;;6.22;4.72;;;;;;;;;;2053743;28;20261;-62
2021/06/21 02:11:35;;;;;;;7.13;4.82;;;;;;;;;;2056804;28;20241;-62
2021/06/21 02:12:35;;;;;;;8.65;4.72;;;;;;;;;;2052806;28;20287;-60
2021/06/21 02:13:36;;;;;;;6.95;4.57;;;;;;;;;;2056642;28;20202;-62
2021/06/21 02:14:36;;;;;;;5.53;4.97;;;;;;;;;;2056212;28;20221;-61
2021/06/21 02:15:37;;;;;;;4.85;4.40;;;;;;;;;;2056025;28;20206;-60
2021/06/21 02:16:37;;;;;;;4.88;4.32;;;;;;;;;;2055553;28;20178;-62
2021/06/21 02:17:38;;;;;;;6.13;4.18;;;;;;;;;;2056399;28;20217;-63
2021/06/21 02:18:38;;;;;;;5.40;4.45;;;;;;;;;;2054129;28;20701;-62
2021/06/21 02:19:39;;;;;;;4.22;3.83;;;;;;;;;;2056575;28;20202;-61
2021/06/21 02:20:40;;;;;;;4.32;4.03;;;;;;;;;;2049981;28;20743;-59
2021/06/21 02:21:40;;;;;;;4.47;4.07;;;;;;;;;;2055646;28;20174;-61
2021/06/21 02:22:40;;;;;;;5.93;4.00;;;;;;;;;;2049472;28;20747;-62
2021/06/21 02:23:41;;;;;;;4.43;4.00;;;;;;;;;;2048535;28;20182;-60
2021/06/21 02:24:41;;;;;;;4.22;3.88;;;;;;;;;;2048902;28;20183;-60
2021/06/21 02:25:42;;;;;;;4.05;3.75;;;;;;;;;;2048556;28;20636;-60
2021/06/21 02:26:43;;;;;;;4.05;3.75;;;;;;;;;;2048459;28;20245;-62
2021/06/21 02:27:44;;;;;;;7.20;3.72;;;;;;;;;;2056176;28;20206;-60
2021/06/21 02:28:44;;;;;;;3.80;3.50;;;;;;;;;;2054567;28;20229;-63
2021/06/21 02:29:46;;;;;;;3.50;3.15;;;;;;;;;;2054556;28;20591;-58
2021/06/21 02:30:47;;;;;;;4.20;3.55;;;;;;;;;;2056488;28;20174;-61
2021/06/21 02:31:49;;;;;;;3.20;2.90;;;;;;;;;;2055480;28;20190;-60
2021/06/21 02:32:49;;;;;;;4.40;4.00;;;;;;;;;;2055314;28;20166;-64
2021/06/21 02:33:50;;;;;;;4.10;3.70;;;;;;;;;;2056663;28;20225;-57
2021/06/21 02:34:50;;;;;;;4.93;4.35;;;;;;;;;;2056391;28;20186;-62
2021/06/21 02:35:51;;;;;;;6.25;4.25;;;;;;;;;;2056814;28;20244;-61
2021/06/21 02:36:51;;;;;;;6.57;3.90;;;;;;;;;;2055298;28;20194;-58
2021/06/21 02:37:52;;;;;;;4.15;3.80;;;;;;;;;;2056139;28;20182;-60
2021/06/21 02:38:54;;;;;;;3.97;3.67;;;;;;;;;;2055286;28;20221;-59
2021/06/21 02:39:54;;;;;;;5.47;3.75;;;;;;;;;;2056802;28;20627;-60
2021/06/21 02:40:55;;;;;;;4.80;3.63;;;;;;;;;;2056283;28;20182;-60
2021/06/21 02:41:55;;;;;;;3.45;3.13;;;;;;;;;;2055842;28;20186;-63
2021/06/21 02:42:55;;;;;;;3.90;3.60;;;;;;;;;;2055677;28;20220;-61
2021/06/21 02:43:56;;;;;;;4.22;3.83;;;;;;;;;;2056237;28;20208;-60
2021/06/21 02:44:56;;;;;;;3.97;3.67;;;;;;;;;;2056484;28;20162;-62
2021/06/21 02:45:56;;;;;;;4.00;3.70;;;;;;;;;;2056099;28;20209;-60
2021/06/21 02:46:56;;;;;;;5.03;4.15;;;;;;;;;;2056969;28;20225;-62
2021/06/21 02:47:57;;;;;;;4.18;3.63;;;;;;;;;;2056459;28;20597;-60
2021/06/21 02:48:57;;;;;;;5.40;4.00;;;;;;;;;;2056697;28;20292;-60
2021/06/21 02:49:57;;;;;;;6.22;4.32;;;;;;;;;;2056696;28;20202;-63
2021/06/21 02:51:00;;;;;;;5.32;4.07;;;;;;;;;;2056670;28;20166;-62
2021/06/21 02:52:01;;;;;;;5.75;4.43;;;;;;;;;;2056187;28;20174;-62
2021/06/21 02:53:07;;;;;;;4.45;4.00;;;;;;;;;;2056767;28;20174;-61
2021/06/21 02:54:16;;;;;;;6.78;5.00;;;;;;;;;;2056505;28;20224;-59
2021/06/21 02:55:22;;;;;;;4.57;4.18;;;;;;;;;;2056931;28;20166;-59
2021/06/21 02:56:22;;;;;;;4.30;3.88;;;;;;;;;;2056578;28;20213;-60
2021/06/21 02:57:28;;;;;;;6.25;4.70;;;;;;;;;;2056941;28;20210;-62
2021/06/21 02:58:34;;;;;;;5.65;4.45;;;;;;;;;;2058531;28;20170;-58
2021/06/21 02:59:39;;;;;;;5.38;4.97;;;;;;;;;;2058043;28;20214;-57
2021/06/21 03:00:40;;;;;;;6.18;4.75;;;;;;;;;;2058645;28;20209;-59
2021/06/21 03:01:45;;;;;;;4.22;3.92;;;;;;;;;;2057974;28;20186;-62
2021/06/21 03:02:46;;;;;;;7.07;5.00;;;;;;;;;;2058409;28;20175;-62
2021/06/21 03:03:50;;;;;;;5.43;4.88;;;;;;;;;;2058066;28;20671;-61
2021/06/21 03:04:51;;;;;;;4.55;4.15;;;;;;;;;;2058300;28;20178;-62
2021/06/21 03:05:52;;;;;;;5.22;4.80;;;;;;;;;;2055017;28;20194;-61
2021/06/21 03:06:53;;;;;;;4.72;4.32;;;;;;;;;;2054123;28;20258;-60
2021/06/21 03:07:54;;;;;;;4.88;4.47;;;;;;;;;;2056547;28;20178;-60
2021/06/21 03:08:54;;;;;;;5.15;4.75;;;;;;;;;;2056965;28;20249;-61
2021/06/21 03:09:55;;;;;;;9.98;5.07;;;;;;;;;;2056361;28;20210;-59
2021/06/21 03:10:57;;;;;;;5.25;4.65;;;;;;;;;;2056930;28;20336;-63
2021/06/21 03:11:58;;;;;;;4.93;4.30;;;;;;;;;;2055973;28;20175;-62
2021/06/21 03:12:59;;;;;;;4.93;4.32;;;;;;;;;;2058345;28;20174;-60
2021/06/21 03:14:00;;;;;;;6.38;5.03;;;;;;;;;;2057491;28;20170;-56
2021/06/21 03:15:00;;;;;;;5.47;4.60;;;;;;;;;;2057365;28;20182;-62
2021/06/21 03:16:01;;;;;;;6.05;5.55;;;;;;;;;;2057277;28;20222;-59
2021/06/21 03:17:06;;;;;;;6.25;5.60;;;;;;;;;;2057956;28;20171;-61
2021/06/21 03:18:07;;;;;;;6.88;5.95;;;;;;;;;;2056437;28;20170;-62
2021/06/21 03:19:11;;;;;;;5.55;4.90;;;;;;;;;;2057197;28;20182;-62
2021/06/21 03:20:12;;;;;;;6.00;5.50;;;;;;;;;;2057198;28;20186;-59
2021/06/21 03:21:12;;;;;;;7.75;5.97;;;;;;;;;;2056828;28;20171;-60
2021/06/21 03:22:12;;;;;;;5.85;5.25;;;;;;;;;;2056824;28;20167;-59
2021/06/21 03:23:13;;;;;;;6.07;5.30;;;;;;;;;;2048700;29;20191;-62
2021/06/21 03:24:14;;;;;;;7.15;5.75;;;;;;;;;;2056721;28;20193;-60
2021/06/21 03:25:15;;;;;;;6.07;5.25;;;;;;;;;;2056945;28;20206;-57
2021/06/21 03:26:15;;;;;;;5.50;5.10;;;;;;;;;;2056802;28;20202;-60
2021/06/21 03:27:15;;;;;;;6.72;6.13;;;;;;;;;;2057723;28;20177;-57
2021/06/21 03:28:16;;;;;;;6.35;5.85;;;;;;;;;;2054356;28;20193;-60
2021/06/21 03:29:17;;;;;;;6.63;5.88;;;;;;;;;;2056966;28;20309;-62
2021/06/21 03:30:18;;;;;;;8.05;6.18;;;;;;;;;;2057461;28;20167;-60
2021/06/21 03:31:19;;;;;;;6.78;5.78;;;;;;;;;;2056206;28;20209;-60
2021/06/21 03:32:30;;;;;;;6.05;5.45;;;;;;;;;;2056537;28;20663;-58
2021/06/21 03:33:31;;;;;;;6.90;5.75;;;;;;;;;;2054323;28;20269;-59
2021/06/21 03:34:33;;;;;;;6.97;6.07;;;;;;;;;;2056759;28;20606;-60
2021/06/21 03:35:33;;;;;;;6.70;6.00;;;;;;;;;;2057588;28;20174;-60
2021/06/21 03:36:34;;;;;;;7.13;5.68;;;;;;;;;;2056628;28;20185;-59
2021/06/21 03:37:34;;;;;;;7.07;6.15;;;;;;;;;;2056504;28;20221;-62
2021/06/21 03:38:34;;;;;;;7.15;6.45;;;;;;;;;;2056599;28;20257;-61
2021/06/21 03:39:34;;;;;;;7.47;6.57;;;;;;;;;;2057116;28;20802;-60
2021/06/21 03:40:35;;;;;;;7.43;6.70;;;;;;;;;;2054383;28;20167;-60
2021/06/21 03:41:36;;;;;;;6.80;6.20;;;;;;;;;;2055895;28;20189;-60
2021/06/21 03:42:36;;;;;;;7.53;6.90;;;;;;;;;;2056912;28;20202;-60
2021/06/21 03:43:37;;;;;;;8.50;6.57;;;;;;;;;;2057114;28;20171;-63
2021/06/21 03:44:37;;;;;;;8.57;6.75;;;;;;;;;;2052625;28;20360;-64
2021/06/21 03:45:37;;;;;;;9.48;7.28;;;;;;;;;;2056337;28;20171;-63
2021/06/21 03:46:37;;;;;;;9.38;7.78;;;;;;;;;;2056569;28;20190;-63
2021/06/21 03:47:38;;;;;;;11.10;7.88;;;;;;;;;;2056220;28;20170;-64
2021/06/21 03:48:39;;;;;;;7.70;6.90;;;;;;;;;;2051976;28;20199;-62
2021/06/21 03:49:40;;;;;;;8.82;7.47;;;;;;;;;;2056322;28;20600;-64
2021/06/21 03:50:40;;;;;;;7.63;6.82;;;;;;;;;;2051417;28;20205;-63
2021/06/21 03:51:41;;;;;;;7.82;7.07;;;;;;;;;;2055822;28;20277;-63
2021/06/21 03:52:41;;;;;;;9.05;7.45;;;;;;;;;;2056748;28;20179;-63
2021/06/21 03:53:41;;;;;;;7.63;6.88;;;;;;;;;;2056422;28;20179;-63
2021/06/21 03:54:42;;;;;;;7.72;7.10;;;;;;;;;;2057317;28;20182;-62
2021/06/21 03:55:42;;;;;;;7.38;6.68;;;;;;;;;;2056472;28;20567;-61
2021/06/21 03:56:42;;;;;;;8.07;7.22;;;;;;;;;;2058457;28;20170;-63
2021/06/21 03:57:44;;;;;;;7.78;6.82;;;;;;;;;;2052291;28;20175;-63
2021/06/21 03:58:47;;;;;;;8.20;7.40;;;;;;;;;;2056580;28;20174;-63
2021/06/21 03:59:47;;;;;;;7.70;7.00;;;;;;;;;;2053134;28;20540;-61
2021/06/21 04:00:47;;;;;;;8.30;7.35;;;;;;;;;;2057293;28;20189;-61
2021/06/21 04:01:49;;;;;;;8.45;7.57;;;;;;;;;;2055976;28;20698;-62
2021/06/21 04:02:49;;;;;;;8.07;7.28;;;;;;;;;;2057179;28;20170;-61
2021/06/21 04:03:54;;;;;;;7.72;7.10;;;;;;;;;;2051057;28;20748;-63
2021/06/21 04:04:55;;;;;;;7.47;6.78;;;;;;;;;;2057278;28;20245;-63
2021/06/21 04:05:55;;;;;;;11.32;6.93;;;;;;;;;;2056795;28;20197;-59
2021/06/21 04:06:55;;;;;;;7.78;7.03;;;;;;;;;;2056832;28;20186;-61
2021/06/21 04:07:55;;;;;;;7.75;6.95;;;;;;;;;;2055086;28;20183;-62
2021/06/21 04:08:56;;;;;;;8.15;7.00;;;;;;;;;;2054507;28;20205;-60
2021/06/21 04:09:56;;;;;;;7.10;6.38;;;;;;;;;;2056734;28;20679;-61
2021/06/21 04:10:56;;;;;;;7.28;6.65;;;;;;;;;;2056399;28;20208;-63
2021/06/21 04:11:57;;;;;;;7.57;6.80;;;;;;;;;;2057579;28;20182;-63
2021/06/21 04:12:58;;;;;;;7.45;6.75;;;;;;;;;;2056199;28;20174;-62
2021/06/21 04:13:58;;;;;;;7.43;6.38;;;;;;;;;;2057770;28;20742;-59
2021/06/21 04:14:59;;;;;;;6.93;6.32;;;;;;;;;;2055667;28;20174;-63
2021/06/21 04:15:59;;;;;;;5.55;5.10;;;;;;;;;;2057354;28;20186;-62
2021/06/21 04:16:59;;;;;;;6.22;5.63;;;;;;;;;;2056893;28;20687;-60
2021/06/21 04:18:00;;;;;;;6.43;5.82;;;;;;;;;;2056178;28;20182;-61
2021/06/21 04:19:01;;;;;;;6.28;5.75;;;;;;;;;;2056842;28;20276;-62
2021/06/21 04:20:02;;;;;;;7.75;6.78;;;;;;;;;;2056565;28;20734;-62
2021/06/21 04:21:03;;;;;;;6.00;5.50;;;;;;;;;;2056126;28;20265;-61
2021/06/21 04:22:03;;;;;;;6.07;5.57;;;;;;;;;;2057470;28;20198;-60
2021/06/21 04:23:04;;;;;;;6.50;5.97;;;;;;;;;;2056382;28;20170;-61
2021/06/21 04:24:04;;;;;;;5.00;4.50;;;;;;;;;;2057108;28;20702;-61
2021/06/21 04:25:07;;;;;;;5.88;5.38;;;;;;;;;;2056555;28;20947;-61
2021/06/21 04:26:07;;;;;;;6.22;5.63;;;;;;;;;;2057340;28;20186;-62
2021/06/21 04:27:08;;;;;;;6.00;5.40;;;;;;;;;;2056994;28;20167;-62
2021/06/21 04:28:09;;;;;;;5.65;5.15;;;;;;;;;;2057674;28;20198;-59
2021/06/21 04:29:09;;;;;;;5.18;4.75;;;;;;;;;;2055082;28;20277;-61
2021/06/21 04:30:10;;;;;;;5.10;4.63;;;;;;;;;;2057764;28;20540;-60
2021/06/21 04:31:11;;;;;;;4.97;4.43;;;;;;;;;;2056294;28;20178;-60
2021/06/21 04:32:11;;;;;;;6.00;5.20;;;;;;;;;;2056808;28;20863;-60
2021/06/21 04:33:11;;;;;;;6.35;5.18;;;;;;;;;;2055624;28;20221;-60
2021/06/21 04:34:11;;;;;;;6.57;5.25;;;;;;;;;;2055017;28;20290;-54
2021/06/21 04:35:13;;;;;;;5.35;4.93;;;;;;;;;;2055116;28;20258;-60
2021/06/21 04:36:13;;;;;;;6.28;5.25;;;;;;;;;;2057118;28;20289;-58
2021/06/21 04:37:13;;;;;;;4.97;4.57;;;;;;;;;;2052477;28;20175;-59
2021/06/21 04:38:17;;;;;;;5.35;4.85;;;;;;;;;;2056913;28;20178;-60
2021/06/21 04:39:17;;;;;;;4.80;4.40;;;;;;;;;;2054154;28;20181;-63
2021/06/21 04:40:18;;;;;;;4.65;4.22;;;;;;;;;;2056199;28;20174;-62
2021/06/21 04:41:18;;;;;;;5.10;4.60;;;;;;;;;;2056437;28;20180;-62
2021/06/21 04:42:18;;;;;;;5.15;4.75;;;;;;;;;;2055813;28;20217;-61
2021/06/21 04:43:19;;;;;;;5.68;5.18;;;;;;;;;;2057661;28;20296;-61
2021/06/21 04:44:20;;;;;;;4.82;4.32;;;;;;;;;;2056843;28;20253;-61
2021/06/21 04:45:20;;;;;;;4.65;4.25;;;;;;;;;;2057698;28;20616;-61
2021/06/21 04:46:23;;;;;;;4.70;4.30;;;;;;;;;;2053854;28;20210;-62
2021/06/21 04:47:24;;;;;;;5.55;4.72;;;;;;;;;;2054144;28;20295;-61
2021/06/21 04:48:24;;;;;;;4.05;3.75;;;;;;;;;;2052956;28;20655;-61
2021/06/21 04:49:25;;;;;;;5.65;4.68;;;;;;;;;;2055172;28;20225;-61
2021/06/21 04:50:25;;;;;;;4.30;4.03;;;;;;;;;;2056735;28;20702;-58
2021/06/21 04:51:25;;;;;;;3.92;3.63;;;;;;;;;;2057067;28;20174;-64
2021/06/21 04:52:28;;;;;;;4.32;4.00;;;;;;;;;;2056590;28;20198;-62
2021/06/21 04:53:29;;;;;;;4.40;4.00;;;;;;;;;;2052600;28;20234;-62
2021/06/21 04:54:29;;;;;;;4.63;4.25;;;;;;;;;;2057272;28;20586;-61
2021/06/21 04:55:29;;;;;;;3.50;3.20;;;;;;;;;;2056549;28;20166;-61
2021/06/21 04:56:29;;;;;;;4.28;3.97;;;;;;;;;;2048020;29;20198;-62
2021/06/21 04:57:30;;;;;;;4.15;3.83;;;;;;;;;;2055761;28;20232;-60
2021/06/21 04:58:34;;;;;;;3.50;3.30;;;;;;;;;;2055506;28;20198;-61
2021/06/21 04:59:34;;;;;;;3.70;3.40;;;;;;;;;;2056188;28;20170;-62
2021/06/21 05:00:35;;;;;;;3.40;3.20;;;;;;;;;;2052485;28;20194;-61
2021/06/21 05:01:35;;;;;;;4.22;3.92;;;;;;;;;;2055907;28;20185;-61
2021/06/21 05:02:36;;;;;;;4.13;3.83;;;;;;;;;;2055868;28;20733;-61
2021/06/21 05:03:37;;;;;;;4.70;4.30;;;;;;;;;;2055788;28;20200;-62
2021/06/21 05:04:37;;;;;;;4.55;4.20;;;;;;;;;;2056064;28;20181;-60
2021/06/21 05:05:37;;;;;;;6.35;5.80;;;;;;;;;;2056011;28;20241;-60
2021/06/21 05:06:38;;;;;;;5.28;4.88;;;;;;;;;;2056198;28;20174;-62
2021/06/21 05:07:39;;;;;;;5.53;5.07;;;;;;;;;;2056664;28;20179;-61
2021/06/21 05:08:40;;;;;;;4.65;4.25;;;;;;;;;;2051105;28;20171;-61
2021/06/21 05:09:42;;;;;;;4.72;4.32;;;;;;;;;;2056659;28;20166;-63
2021/06/21 05:10:42;;;;;;;4.95;4.63;;;;;;;;;;2056846;28;20699;-63
2021/06/21 05:11:42;;;;;;;4.45;4.05;;;;;;;;;;2054145;28;20170;-60
2021/06/21 05:12:43;;;;;;;8.25;6.53;;;;;;;;;;2049112;28;20234;-62
2021/06/21 05:13:43;;;;;;;5.40;5.00;;;;;;;;;;2056588;28;20198;-63
2021/06/21 05:14:44;;;;;;;4.55;4.13;;;;;;;;;;2056392;28;20194;-62
2021/06/21 05:15:44;;;;;;;5.55;5.10;;;;;;;;;;2039989;28;20188;-63
2021/06/21 05:16:45;;;;;;;4.13;3.72;;;;;;;;;;2047927;29;20191;-62
2021/06/21 05:17:45;;;;;;;5.10;4.70;;;;;;;;;;2056021;28;20189;-63
2021/06/21 05:18:45;;;;;;;7.97;7.20;;;;;;;;;;2056401;28;20229;-62
2021/06/21 05:19:46;;;;;;;7.43;6.82;;;;;;;;;;2056622;28;20166;-61
2021/06/21 05:20:46;;;;;;;4.88;4.57;;;;;;;;;;2053252;28;20186;-61
2021/06/21 05:21:46;;;;;;;6.00;5.57;;;;;;;;;;2055650;28;20269;-62
2021/06/21 05:22:48;;;;;;;6.35;5.93;;;;;;;;;;2056061;28;20178;-63
2021/06/21 05:23:49;;;;;;;4.90;4.57;;;;;;;;;;2056022;28;20228;-61
2021/06/21 05:24:49;;;;;;;6.22;5.82;;;;;;;;;;2057467;28;20178;-62
2021/06/21 05:25:49;;;;;;;6.55;6.05;;;;;;;;;;2055989;28;20300;-63
2021/06/21 05:26:50;;;;;;;5.43;5.03;;;;;;;;;;2056395;28;20179;-62
2021/06/21 05:27:50;;;;;;;5.85;5.28;;;;;;;;;;2055513;28;20177;-62
2021/06/21 05:28:50;;;;;;;5.95;5.53;;;;;;;;;;2056507;28;20221;-62
2021/06/21 05:29:51;;;;;;;5.70;5.20;;;;;;;;;;2051146;28;20350;-62
2021/06/21 05:30:51;;;;;;;5.93;5.43;;;;;;;;;;2056801;28;20171;-62
2021/06/21 05:31:51;;;;;;;5.53;5.20;;;;;;;;;;2052632;28;20553;-64
2021/06/21 05:32:52;;;;;;;5.72;5.32;;;;;;;;;;2057436;28;20185;-63
2021/06/21 05:33:52;;;;;;;6.30;5.80;;;;;;;;;;2057282;28;20577;-65
2021/06/21 05:34:53;;;;;;;6.57;6.07;;;;;;;;;;2063039;28;20221;-63
2021/06/21 05:35:53;;;;;;;7.10;6.50;;;;;;;;;;2064109;28;20190;-63
2021/06/21 05:36:54;;;;;;;6.38;5.88;;;;;;;;;;2061828;28;20166;-62
2021/06/21 05:37:54;;;;;;;6.63;6.13;;;;;;;;;;2057315;28;20217;-64
2021/06/21 05:38:54;;;;;;;6.00;5.40;;;;;;;;;;2056784;28;20189;-62
2021/06/21 05:39:54;;;;;;;5.13;4.82;;;;;;;;;;2056809;28;20205;-62
2021/06/21 05:40:55;;;;;;;6.05;5.65;;;;;;;;;;2055884;28;20182;-63
2021/06/21 05:41:55;;;;;;;7.55;6.97;;;;;;;;;;2057059;28;20546;-62
2021/06/21 05:42:55;;;;;;;5.78;5.28;;;;;;;;;;2056421;28;20214;-62
2021/06/21 05:43:56;;;;;;;6.15;5.75;;;;;;;;;;2057212;28;20175;-62
2021/06/21 05:44:56;;;;;;;4.10;3.90;;;;;;;;;;2055121;28;20670;-62
2021/06/21 05:45:56;;;;;;;5.72;5.32;;;;;;;;;;2057093;28;20202;-63
2021/06/21 05:46:57;;;;;;;6.55;5.93;;;;;;;;;;2054330;28;20262;-63
2021/06/21 05:47:57;;;;;;;5.30;4.90;;;;;;;;;;2055041;28;20178;-63
2021/06/21 05:48:57;;;;;;;5.05;4.68;;;;;;;;;;2050500;28;20594;-63
2021/06/21 05:49:57;;;;;;;4.57;4.28;;;;;;;;;;2057158;28;20162;-63
2021/06/21 05:51:01;;;;;;;5.20;4.90;;;;;;;;;;2053173;28;20234;-63
2021/06/21 05:52:01;;;;;;;5.25;4.85;;;;;;;;;;2056763;28;20253;-64
2021/06/21 05:53:01;;;;;;;5.63;5.22;;;;;;;;;;2055852;28;20261;-63
2021/06/21 05:54:01;;;;;;;4.78;4.43;;;;;;;;;;2056618;28;20185;-64
2021/06/21 05:55:02;;;;;;;5.72;5.20;;;;;;;;;;2052516;28;20183;-64
2021/06/21 05:56:02;;;;;;;5.20;4.80;;;;;;;;;;2057155;28;20354;-63
2021/06/21 05:57:03;;;;;;;5.57;5.25;;;;;;;;;;2051839;28;20178;-62
2021/06/21 05:58:03;;;;;;;5.63;5.22;;;;;;;;;;2057064;28;20635;-63
2021/06/21 05:59:03;;;;;;;5.88;5.47;;;;;;;;;;2051507;28;21512;-64
2021/06/21 06:00:05;;;;;;;5.97;5.47;;;;;;;;;;2057080;28;20569;-59
2021/06/21 06:01:07;;;;;;;5.38;5.00;;;;;;;;;;2056039;28;20241;-61
2021/06/21 06:02:07;;;;;;;5.40;5.00;;;;;;;;;;2055587;28;20313;-62
2021/06/21 06:03:07;;;;;;;6.18;5.32;;;;;;;;;;2047486;29;20213;-64
2021/06/21 06:04:08;;;;;;;5.07;4.78;;;;;;;;;;2050506;28;20269;-63
2021/06/21 06:05:08;;;;;;;4.80;4.40;;;;;;;;;;2054591;28;20170;-64
2021/06/21 06:06:08;;;;;;;5.35;4.88;;;;;;;;;;2054548;28;20562;-63
2021/06/21 06:07:09;;;;;;;4.75;4.45;;;;;;;;;;2056321;28;20186;-62
2021/06/21 06:08:09;;;;;;;4.63;4.32;;;;;;;;;;2054020;28;20175;-59